createdAt,value
2022-09-05T00:00:36.971Z,73.34
2022-09-05T00:03:47.911Z,73.21
2022-09-05T00:06:58.863Z,73.10
2022-09-05T00:10:10.967Z,73.29
2022-09-05T00:13:25.000Z,73.28
2022-09-05T00:16:37.683Z,73.25
2022-09-05T00:24:27.972Z,73.28
2022-09-05T00:24:30.780Z,73.36
2022-09-05T00:26:50.106Z,73.40
2022-09-05T00:31:50.748Z,73.37
2022-09-05T00:33:32.270Z,73.49
2022-09-05T00:36:41.190Z,73.43
2022-09-05T00:39:47.915Z,73.54
2022-09-05T00:43:06.953Z,73.59
2022-09-05T00:46:15.379Z,73.58
2022-09-05T00:49:23.786Z,73.72
2022-09-05T00:52:32.342Z,73.71
2022-09-05T00:55:40.526Z,73.88
2022-09-05T00:58:59.624Z,73.81
2022-09-05T01:02:08.048Z,73.94
2022-09-05T01:05:21.542Z,74.02
2022-09-05T01:08:37.474Z,73.93
2022-09-05T01:11:53.818Z,74.09
2022-09-05T01:15:06.019Z,74.10
2022-09-05T01:18:17.772Z,74.16
2022-09-05T01:21:38.697Z,74.11
2022-09-05T01:25:05.524Z,74.31
2022-09-05T01:29:16.218Z,74.33
2022-09-05T01:31:47.236Z,74.29
2022-09-05T01:35:05.919Z,74.23
2022-09-05T01:38:12.394Z,74.24
2022-09-05T01:41:21.776Z,74.47
2022-09-05T01:44:32.194Z,74.33
2022-09-05T01:47:47.342Z,74.36
2022-09-05T01:50:55.952Z,74.44
2022-09-05T01:54:23.769Z,74.47
2022-09-05T01:57:38.858Z,74.41
2022-09-05T02:00:49.447Z,74.63
2022-09-05T02:04:00.003Z,74.51
2022-09-05T02:07:30.606Z,74.42
2022-09-05T02:10:40.822Z,74.75
2022-09-05T02:13:58.716Z,74.65
2022-09-05T02:17:23.684Z,74.49
2022-09-05T02:20:46.594Z,74.73
2022-09-05T02:23:54.608Z,74.70
2022-09-05T02:27:10.888Z,74.69
2022-09-05T02:30:37.550Z,74.72
2022-09-05T02:34:01.724Z,74.82
2022-09-05T02:37:10.785Z,74.78
2022-09-05T02:45:10.694Z,74.80
2022-09-05T02:45:14.210Z,74.87
2022-09-05T02:47:14.457Z,74.93
2022-09-05T02:53:59.231Z,74.89
2022-09-05T02:57:37.051Z,74.86
2022-09-05T02:58:06.605Z,74.96
2022-09-05T03:01:09.452Z,75.02
2022-09-05T03:04:23.531Z,74.97
2022-09-05T03:07:46.242Z,74.91
2022-09-05T03:11:05.428Z,74.80
2022-09-05T03:14:35.797Z,74.89
2022-09-05T03:17:53.603Z,74.92
2022-09-05T03:21:17.791Z,75.03
2022-09-05T03:24:41.708Z,74.91
2022-09-05T03:28:22.531Z,75.00
2022-09-05T03:31:39.449Z,74.91
2022-09-05T03:34:55.061Z,75.05
2022-09-05T03:38:10.263Z,75.02
2022-09-05T03:41:23.813Z,75.07
2022-09-05T03:44:46.935Z,75.14
2022-09-05T03:48:02.375Z,75.24
2022-09-05T03:57:06.641Z,75.07
2022-09-05T03:57:25.240Z,75.22
2022-09-05T03:58:59.093Z,75.25
2022-09-05T04:07:54.761Z,75.28
2022-09-05T04:08:19.113Z,75.36
2022-09-05T04:09:03.156Z,75.43
2022-09-05T04:12:16.731Z,75.41
2022-09-05T04:15:30.192Z,75.50
2022-09-05T04:18:38.686Z,75.59
2022-09-05T04:21:48.221Z,75.63
2022-09-05T04:25:00.086Z,75.60
2022-09-05T04:28:12.479Z,75.67
2022-09-05T04:31:25.114Z,75.66
2022-09-05T04:34:36.727Z,75.70
2022-09-05T04:37:55.379Z,75.69
2022-09-05T04:41:01.701Z,76.03
2022-09-05T04:44:08.332Z,76.03
2022-09-05T04:47:15.725Z,75.91
2022-09-05T04:50:23.608Z,75.96
2022-09-05T04:53:37.027Z,76.10
2022-09-05T04:56:44.085Z,76.19
2022-09-05T05:04:49.412Z,76.45
2022-09-05T05:06:17.541Z,76.43
2022-09-05T05:06:51.937Z,76.42
2022-09-05T05:10:45.325Z,76.46
2022-09-05T05:17:58.993Z,76.57
2022-09-05T05:18:15.329Z,76.51
2022-09-05T05:20:43.026Z,76.49
2022-09-05T05:23:51.884Z,76.73
2022-09-05T05:26:59.051Z,76.72
2022-09-05T05:30:04.879Z,76.93
2022-09-05T05:33:12.449Z,76.66
2022-09-05T05:36:19.407Z,76.77
2022-09-05T05:39:26.002Z,76.75
2022-09-05T05:42:30.591Z,76.83
2022-09-05T05:45:35.356Z,76.68
2022-09-05T05:48:42.131Z,76.70
2022-09-05T05:52:02.302Z,76.92
2022-09-05T05:55:50.734Z,76.82
2022-09-05T05:58:53.645Z,76.55
2022-09-05T06:02:11.727Z,76.79
2022-09-05T06:05:29.762Z,76.99
2022-09-05T06:12:44.984Z,77.06
2022-09-05T06:15:06.636Z,76.94
2022-09-05T06:16:29.907Z,77.02
2022-09-05T06:21:24.033Z,76.91
2022-09-05T06:23:39.256Z,76.80
2022-09-05T06:27:00.906Z,76.86
2022-09-05T06:30:07.257Z,76.96
2022-09-05T06:33:16.804Z,77.01
2022-09-05T06:36:31.219Z,76.84
2022-09-05T06:39:50.127Z,76.99
2022-09-05T06:43:05.969Z,77.01
2022-09-05T06:46:45.895Z,76.90
2022-09-05T06:49:59.169Z,77.09
2022-09-05T06:53:27.460Z,77.15
2022-09-05T06:56:39.322Z,76.89
2022-09-05T07:00:04.186Z,77.16
2022-09-05T07:03:20.542Z,77.34
2022-09-05T07:06:48.159Z,77.21
2022-09-05T07:09:59.685Z,77.20
2022-09-05T07:13:10.293Z,77.29
2022-09-05T07:16:18.022Z,77.12
2022-09-05T07:19:45.671Z,77.06
2022-09-05T07:22:55.837Z,76.89
2022-09-05T07:26:51.617Z,76.82
2022-09-05T07:30:00.604Z,77.04
2022-09-05T07:33:06.409Z,76.84
2022-09-05T07:36:13.060Z,76.88
2022-09-05T07:39:28.713Z,76.84
2022-09-05T07:42:38.714Z,77.05
2022-09-05T07:45:52.240Z,76.86
2022-09-05T07:49:02.868Z,76.72
2022-09-05T07:56:50.806Z,76.49
2022-09-05T07:56:58.643Z,76.46
2022-09-05T07:59:08.722Z,76.31
2022-09-05T08:02:13.609Z,76.21
2022-09-05T08:05:21.574Z,76.04
2022-09-05T08:08:52.172Z,75.54
2022-09-05T08:12:15.312Z,75.46
2022-09-05T08:15:23.069Z,75.57
2022-09-05T08:18:33.346Z,75.25
2022-09-05T08:21:43.044Z,75.08
2022-09-05T08:24:54.517Z,74.72
2022-09-05T08:28:06.421Z,74.50
2022-09-05T08:31:12.050Z,74.20
2022-09-05T08:34:31.404Z,73.70
2022-09-05T08:37:44.698Z,72.86
2022-09-05T08:40:52.781Z,72.69
2022-09-05T08:46:42.292Z,72.63
2022-09-05T08:47:45.828Z,72.03
2022-09-05T08:51:07.035Z,71.56
2022-09-05T08:54:30.950Z,71.77
2022-09-05T08:57:53.159Z,71.24
2022-09-05T09:01:04.814Z,71.06
2022-09-05T09:04:52.460Z,70.80
2022-09-05T09:07:52.521Z,70.53
2022-09-05T09:10:59.599Z,70.43
2022-09-05T09:14:30.659Z,70.11
2022-09-05T09:17:45.859Z,69.51
2022-09-05T09:20:52.943Z,69.66
2022-09-05T09:24:04.641Z,69.18
2022-09-05T09:27:15.181Z,68.90
2022-09-05T09:30:24.066Z,68.58
2022-09-05T09:33:35.264Z,68.11
2022-09-05T09:36:54.979Z,67.94
2022-09-05T09:43:52.710Z,67.31
2022-09-05T09:46:58.135Z,66.80
2022-09-05T09:50:17.726Z,66.26
2022-09-05T09:53:29.890Z,66.23
2022-09-05T09:56:56.882Z,66.17
2022-09-05T10:00:07.458Z,65.96
2022-09-05T10:08:07.512Z,65.84
2022-09-05T10:10:45.282Z,65.23
2022-09-05T10:11:24.508Z,64.82
2022-09-05T10:14:42.134Z,64.44
2022-09-05T10:18:04.621Z,64.29
2022-09-05T10:21:29.846Z,64.30
2022-09-05T10:24:47.044Z,64.08
2022-09-05T10:28:00.757Z,63.67
2022-09-05T10:34:20.332Z,63.14
2022-09-05T10:35:15.251Z,62.93
2022-09-05T10:38:12.575Z,62.38
2022-09-05T10:41:22.380Z,62.56
2022-09-05T10:44:34.041Z,62.44
2022-09-05T10:47:42.662Z,62.27
2022-09-05T10:50:51.005Z,62.11
2022-09-05T10:54:04.407Z,61.85
2022-09-05T10:57:20.654Z,61.53
2022-09-05T11:02:27.827Z,61.31
2022-09-05T11:04:20.412Z,60.67
2022-09-05T11:07:32.659Z,60.67
2022-09-05T11:10:39.016Z,60.30
2022-09-05T11:13:47.773Z,60.22
2022-09-05T11:16:53.579Z,59.74
2022-09-05T11:20:02.691Z,59.39
2022-09-05T11:23:11.369Z,59.24
2022-09-05T11:26:25.605Z,59.44
2022-09-05T11:29:35.803Z,59.15
2022-09-05T11:37:30.743Z,58.54
2022-09-05T11:40:09.796Z,58.54
2022-09-05T11:40:31.573Z,58.24
2022-09-05T11:44:03.801Z,57.90
2022-09-05T11:47:44.166Z,57.58
2022-09-05T11:51:05.534Z,57.03
2022-09-05T11:54:28.282Z,56.79
2022-09-05T11:57:42.225Z,56.69
2022-09-05T12:00:49.077Z,56.35
2022-09-05T12:04:08.527Z,56.01
2022-09-05T12:11:02.538Z,55.63
2022-09-05T12:14:21.133Z,55.41
2022-09-05T12:17:35.510Z,55.11
2022-09-05T12:20:45.677Z,55.00
2022-09-05T12:24:40.834Z,54.60
2022-09-05T12:27:38.933Z,54.60
2022-09-05T12:31:32.307Z,54.36
2022-09-05T12:36:05.777Z,53.90
2022-09-05T12:40:55.232Z,53.63
2022-09-05T12:41:46.106Z,53.61
2022-09-05T12:44:52.637Z,53.31
2022-09-05T12:48:00.921Z,53.26
2022-09-05T12:51:09.978Z,53.09
2022-09-05T12:54:32.717Z,52.86
2022-09-05T13:02:58.281Z,52.89
2022-09-05T13:03:13.063Z,52.75
2022-09-05T13:05:01.999Z,52.58
2022-09-05T13:08:13.414Z,52.42
2022-09-05T13:14:49.976Z,52.18
2022-09-05T13:15:07.923Z,51.85
2022-09-05T13:18:16.894Z,51.68
2022-09-05T13:21:23.552Z,52.00
2022-09-05T13:24:32.346Z,51.50
2022-09-05T13:27:40.890Z,51.57
2022-09-05T13:35:42.204Z,51.42
2022-09-05T13:38:15.623Z,51.22
2022-09-05T13:38:41.934Z,51.34
2022-09-05T13:41:27.313Z,51.16
2022-09-05T13:44:36.149Z,51.13
2022-09-05T13:47:54.629Z,51.04
2022-09-05T13:51:05.138Z,50.94
2022-09-05T13:54:18.763Z,50.65
2022-09-05T13:57:31.627Z,50.67
2022-09-05T14:00:54.001Z,50.58
2022-09-05T14:05:05.430Z,50.56
2022-09-05T14:07:51.457Z,50.17
2022-09-05T14:11:09.321Z,50.05
2022-09-05T14:15:08.417Z,49.92
2022-09-05T14:18:21.624Z,49.65
2022-09-05T14:21:28.101Z,49.73
2022-09-05T14:24:34.948Z,49.37
2022-09-05T14:27:42.878Z,49.66
2022-09-05T14:33:04.390Z,49.43
2022-09-05T14:37:42.238Z,49.54
2022-09-05T14:38:09.410Z,49.56
2022-09-05T14:41:37.405Z,49.21
2022-09-05T14:44:55.230Z,49.21
2022-09-05T14:48:13.283Z,48.86
2022-09-05T14:51:28.882Z,49.10
2022-09-05T15:02:48.046Z,48.88
2022-09-05T15:02:49.948Z,49.08
2022-09-05T15:04:57.196Z,48.83
2022-09-05T15:08:28.949Z,48.79
2022-09-05T15:12:19.928Z,48.88
2022-09-05T15:15:12.121Z,49.01
2022-09-05T15:18:20.674Z,49.07
2022-09-05T15:21:33.871Z,49.27
2022-09-05T15:24:39.710Z,49.19
2022-09-05T15:27:44.621Z,49.30
2022-09-05T15:30:58.968Z,49.30
2022-09-05T15:34:19.423Z,49.17
2022-09-05T15:37:25.275Z,49.41
2022-09-05T15:40:29.826Z,49.66
2022-09-05T15:43:34.880Z,49.45
2022-09-05T15:46:47.077Z,49.50
2022-09-05T15:49:55.016Z,49.67
2022-09-05T15:52:59.764Z,49.79
2022-09-05T15:56:17.588Z,49.97
2022-09-05T15:59:23.477Z,50.16
2022-09-05T16:02:29.355Z,50.05
2022-09-05T16:10:35.846Z,50.18
2022-09-05T16:10:41.558Z,50.02
2022-09-05T16:12:35.989Z,50.20
2022-09-05T16:19:17.104Z,49.99
2022-09-05T16:23:32.500Z,50.11
2022-09-05T16:23:32.822Z,50.29
2022-09-05T16:26:08.053Z,50.40
2022-09-05T16:29:22.662Z,50.43
2022-09-05T16:32:32.290Z,50.43
2022-09-05T16:35:39.705Z,50.49
2022-09-05T16:38:49.781Z,50.50
2022-09-05T16:41:57.374Z,50.80
2022-09-05T16:45:04.552Z,50.91
2022-09-05T16:48:16.994Z,51.12
2022-09-05T16:51:35.188Z,51.32
2022-09-05T16:54:42.735Z,51.36
2022-09-05T16:57:58.029Z,51.50
2022-09-05T17:01:26.287Z,51.58
2022-09-05T17:04:35.058Z,51.71
2022-09-05T17:07:56.845Z,51.66
2022-09-05T17:11:12.120Z,51.85
2022-09-05T17:14:21.882Z,51.78
2022-09-05T17:18:18.610Z,51.93
2022-09-05T17:20:58.186Z,52.34
2022-09-05T17:29:26.138Z,52.66
2022-09-05T17:29:31.261Z,52.94
2022-09-05T17:34:40.372Z,53.46
2022-09-05T17:38:11.592Z,53.70
2022-09-05T17:41:28.461Z,54.01
2022-09-05T17:44:38.973Z,54.22
2022-09-05T17:47:48.612Z,54.47
2022-09-05T17:50:54.218Z,54.56
2022-09-05T17:54:16.349Z,54.64
2022-09-05T17:57:41.208Z,54.99
2022-09-05T18:01:05.655Z,55.14
2022-09-05T18:04:16.419Z,55.37
2022-09-05T18:07:42.682Z,55.57
2022-09-05T18:11:02.410Z,55.74
2022-09-05T18:14:35.224Z,55.99
2022-09-05T18:17:53.173Z,56.01
2022-09-05T18:21:21.366Z,56.19
2022-09-05T18:24:33.489Z,56.45
2022-09-05T18:28:06.581Z,56.52
2022-09-05T18:31:41.196Z,56.80
2022-09-05T18:34:47.734Z,57.06
2022-09-05T18:38:08.943Z,57.15
2022-09-05T18:41:21.646Z,57.39
2022-09-05T18:44:28.135Z,57.66
2022-09-05T18:47:36.316Z,57.75
2022-09-05T18:51:13.299Z,57.86
2022-09-05T18:54:22.564Z,58.15
2022-09-05T18:57:31.713Z,58.09
2022-09-05T19:00:48.479Z,58.28
2022-09-05T19:03:54.142Z,58.27
2022-09-05T19:06:59.715Z,58.53
2022-09-05T19:10:35.610Z,58.58
2022-09-05T19:13:41.130Z,58.75
2022-09-05T19:16:48.435Z,58.81
2022-09-05T19:20:30.878Z,59.06
2022-09-05T19:23:37.082Z,59.32
2022-09-05T19:26:41.770Z,59.29
2022-09-05T19:36:50.443Z,59.33
2022-09-05T19:37:04.345Z,59.54
2022-09-05T19:37:30.075Z,59.75
2022-09-05T19:47:11.021Z,59.74
2022-09-05T19:47:39.635Z,60.03
2022-09-05T19:47:55.889Z,60.14
2022-09-05T19:50:51.647Z,60.19
2022-09-05T19:54:05.297Z,60.32
2022-09-05T19:57:15.912Z,60.39
2022-09-05T20:00:24.773Z,60.55
2022-09-05T20:03:35.457Z,60.80
2022-09-05T20:06:44.094Z,60.77
2022-09-05T20:09:49.536Z,60.75
2022-09-05T20:12:54.492Z,61.02
2022-09-05T20:16:02.129Z,61.11
2022-09-05T20:19:06.898Z,61.24
2022-09-05T20:22:47.674Z,61.28
2022-09-05T20:25:40.030Z,61.48
2022-09-05T20:28:45.808Z,61.58
2022-09-05T20:31:50.654Z,61.67
2022-09-05T20:36:45.318Z,61.75
2022-09-05T20:43:21.347Z,61.77
2022-09-05T20:43:22.292Z,61.89
2022-09-05T20:45:35.372Z,62.03
2022-09-05T20:54:06.526Z,62.31
2022-09-05T20:54:25.246Z,62.36
2022-09-05T20:55:41.325Z,62.57
2022-09-05T20:58:50.298Z,62.48
2022-09-05T21:01:59.170Z,62.36
2022-09-05T21:05:10.111Z,62.52
2022-09-05T21:08:35.584Z,62.57
2022-09-05T21:11:40.548Z,62.76
2022-09-05T21:14:46.512Z,62.75
2022-09-05T21:17:51.350Z,62.76
2022-09-05T21:20:56.992Z,62.79
2022-09-05T21:24:15.827Z,63.04
2022-09-05T21:27:24.858Z,62.96
2022-09-05T21:30:31.147Z,62.95
2022-09-05T21:33:44.976Z,63.05
2022-09-05T21:36:59.209Z,63.23
2022-09-05T21:40:12.633Z,63.30
2022-09-05T21:47:33.548Z,63.44
2022-09-05T21:47:38.727Z,63.56
2022-09-05T21:50:06.540Z,63.67
2022-09-05T21:55:51.745Z,63.62
2022-09-05T21:59:25.803Z,63.66
2022-09-05T22:00:11.247Z,63.76
2022-09-05T22:03:18.168Z,63.81
2022-09-05T22:06:23.266Z,63.91
2022-09-05T22:09:27.934Z,64.12
2022-09-05T22:12:36.119Z,64.10
2022-09-05T22:15:40.864Z,64.28
2022-09-05T22:18:47.995Z,64.32
2022-09-05T22:21:53.351Z,64.37
2022-09-05T22:25:02.061Z,64.29
2022-09-05T22:28:08.950Z,64.45
2022-09-05T22:31:13.355Z,64.72
2022-09-05T22:34:17.833Z,64.71
2022-09-05T22:37:22.555Z,64.79
2022-09-05T22:40:27.047Z,64.88
2022-09-05T22:43:34.581Z,65.04
2022-09-05T22:46:39.076Z,65.05
2022-09-05T22:49:43.610Z,65.24
2022-09-05T22:52:48.037Z,65.18
2022-09-05T22:55:58.341Z,65.29
2022-09-05T22:59:03.678Z,65.41
2022-09-05T23:02:08.129Z,65.67
2022-09-05T23:05:13.190Z,65.71
2022-09-05T23:08:17.834Z,65.75
2022-09-05T23:11:22.362Z,65.75
2022-09-05T23:14:26.802Z,65.66
2022-09-05T23:17:31.376Z,65.81
2022-09-05T23:20:35.823Z,65.77
2022-09-05T23:23:41.416Z,65.69
2022-09-05T23:26:45.906Z,65.87
2022-09-05T23:29:50.338Z,66.06
2022-09-05T23:32:54.962Z,66.08
2022-09-05T23:36:01.843Z,66.06
2022-09-05T23:39:06.461Z,66.07
2022-09-05T23:42:10.956Z,66.09
2022-09-05T23:45:15.615Z,66.30
2022-09-05T23:48:20.072Z,66.25
2022-09-05T23:51:24.911Z,66.30
2022-09-05T23:54:29.356Z,66.45
2022-09-05T23:57:33.814Z,66.43
